Station: Pirlangimpi

  Atmospheric Gas Attenuation - ITU Rec 676-11   --------------- db/100km ---------------
Date Time Temp RH % AH g/m3 Dew Point Wind Direction Speed kph Gust kph Barometer mB Rainfall Since 9am 24GHz 47GHz 76GHz 122GHz 134GHz 241GHz
11 21:50 24.3 95 21.02 23.4 0 0 1013.1 7.4 45.4 44.3 87.8 232.4 259.2 900.3
11 21:40 24.3 94 20.8 23.2 0 0 1013.1 7.4 44.9 43.9 86.7 229.5 255.6 887.8
11 21:30 24.4 94 20.92 23.4 0 0 1010.8 7.4 45.1 44.0 87.0 230.4 256.8 892.1
11 21:20 24.5 94 21.04 23.4 0 0 1013.1 7.4 45.4 44.3 87.7 232.1 258.8 899.0
11 21:10 24.5 94 21.04 23.4 0 0 1013.1 7.4 45.4 44.3 87.7 232.1 258.8 899.0
11 21:00 24.6 94 21.16 23.6 0 0 1010.6 7.4 45.6 44.4 88.0 232.9 260.0 903.2
11 20:50 24.6 94 21.16 23.5 0 0 1013.1 7.4 45.6 44.5 88.2 233.4 260.4 904.7
11 20:40 24.5 94 21.04 23.4 0 0 1013.1 7.4 45.4 44.3 87.7 232.1 258.8 899.0
11 20:30 24.7 94 21.28 23.7 0 0 1010.4 7.4 45.9 44.5 88.5 234.2 261.6 908.7
11 20:20 24.7 94 21.28 23.6 0 0 1013.1 7.4 45.9 44.7 88.7 234.7 262.1 910.3
11 20:10 24.8 94 21.4 23.7 2 4 1013.1 7.4 46.1 44.8 89.1 235.9 263.7 915.9
11 20:00 24.9 94 21.52 23.9 0 0 1010 7.4 46.4 44.9 89.4 236.7 264.8 919.6
11 19:50 24.9 94 21.52 23.8 0 0 1013.1 7.4 46.3 45.0 89.6 237.2 265.3 921.5
11 19:40 24.9 94 21.52 23.8 0 0 1013.1 7.4 46.3 45.0 89.6 237.2 265.3 921.5
11 19:30 24.9 94 21.52 23.9 0 0 1009.6 7.4 46.4 44.9 89.4 236.6 264.7 919.4
11 19:20 24.9 92 21.06 23.6 0 0 1013.1 7.4 45.4 44.1 87.3 231.1 257.8 895.4
11 19:10 24.9 92 21.06 23.5 0 0 1013.1 7.4 45.4 44.1 87.3 231.1 257.8 895.4
11 19:00 24.9 91 20.83 23.3 0 0 1009.2 7.4 44.9 43.5 85.9 227.4 253.4 880.1
11 18:50 25.2 92 21.42 23.8 0 0 1013.1 7.4 46.1 44.7 88.8 235.0 262.6 912.1
11 18:40 25.3 92 21.54 23.9 0 0 1013.1 7.4 46.3 44.9 89.2 236.2 264.2 917.7
11 18:30 25.4 93 21.89 24.2 0 0 1008.9 7.4 47.1 45.3 90.6 239.9 268.8 933.9
11 18:20 25.4 92 21.66 24 0 0 1013.1 7.4 46.6 45.0 89.7 237.5 265.8 923.3
11 18:10 25.5 91 21.54 23.9 0 0 1013.1 7.4 46.3 44.7 89.0 235.6 263.5 915.3
11 18:00 25.6 90 21.43 23.8 0 6 1008.6 7.4 46.1 44.3 88.0 233.1 260.5 905.1
11 17:50 25.5 89 21.07 23.5 4 6 1013.1 7.4 45.3 43.8 86.7 229.4 255.8 888.7
11 17:40 25.9 92 22.27 24.5 2 4 1013.1 7.4 47.8 46.0 92.2 244.1 274.0 951.9
11 17:30 25.7 92 22.03 24.3 4 6 1008.7 7.4 47.4 45.4 90.9 240.7 270.0 938.0
11 17:20 25.5 92 21.78 24.2 6 7 1013.1 7.4 46.8 45.2 90.2 238.8 267.4 928.9
11 17:10 25 94 21.64 23.9 4 6 1013.1 7.4 46.6 45.2 90.1 238.5 266.9 927.1
11 17:00 24.8 94 21.4 23.8 2 6 1008.7 7.4 46.1 44.6 88.8 235.2 262.9 913.2
11 16:50 24.7 94 21.28 23.6 0 0 1013.1 7.4 45.9 44.7 88.7 234.7 262.1 910.3
11 16:40 24.7 94 21.28 23.6 0 0 1013.1 7.4 45.9 44.7 88.7 234.7 262.1 910.3
11 16:30 24.7 93 21.05 23.5 4 9 1009.1 7.4 45.4 44.0 87.2 230.9 257.6 894.8
11 16:20 24.6 92 20.71 23.2 7 9 1013.1 7.4 44.7 43.6 85.9 227.4 253.1 879.2
11 16:10 24.8 94 21.4 23.7 7 11 1013.1 7.4 46.1 44.8 89.1 235.9 263.7 915.9
11 16:00 24.5 93 20.81 23.3 2 6 1008.7 7.4 44.9 43.6 86.2 228.3 254.3 883.4
11 15:50 24.5 93 20.81 23.3 4 4 1013.1 7.4 44.9 43.8 86.5 229.0 255.1 886.0
11 15:40 24.3 92 20.36 22.9 2 2 1013.1 7.4 43.9 43.0 84.5 223.7 248.5 863.0
11 15:30 24.2 92 20.24 22.8 6 13 1008.6 7.2 43.7 42.6 83.7 221.6 246.1 854.8
11 15:20 24.3 90 19.92 22.5 6 7 1013.1 7 43.0 42.2 82.4 217.9 241.4 838.4
11 15:10 24.4 87 19.36 22.2 4 6 1013.1 5 41.8 41.0 79.5 210.4 232.2 806.5
11 15:00 25.4 80 18.83 21.7 15 28 1009.5 1.6 40.6 39.4 75.7 200.4 220.4 765.6
11 14:50 27.1 79 20.45 23.1 19 26 1013.1 1.4 43.8 41.8 81.9 216.6 240.7 836.3
11 14:40 28.6 77 21.64 24.3 11 15 1013.1 1.4 46.1 43.3 85.9 227.3 254.2 883.6
11 14:30 30 76 23.05 25.3 7 15 1008.5 1.4 49.0 45.1 90.7 240.3 270.6 940.9
11 14:20 29.9 74 22.32 24.9 6 9 1013.1 1.4 47.4 43.9 87.6 232.0 260.3 905.1
11 14:10 30 78 23.66 25.7 4 4 1013.1 1.4 50.2 46.5 94.0 249.0 281.2 977.5
11 14:00 29.2 82 23.81 25.8 4 13 1008.7 1.4 50.7 47.0 95.5 252.9 285.9 993.6
11 13:50 29.4 81 23.78 25.8 9 13 1013.1 0.8 50.6 47.0 95.4 252.6 285.4 992.1
11 13:40 29.2 76 22.07 24.5 4 4 1013.1 0.6 47.0 43.8 87.2 231.0 258.9 899.9
11 13:30 30.8 70 22.17 24.7 9 17 1009.1 0.2 47.0 43.0 85.6 226.8 254.3 884.0
11 13:20 31.1 69 22.21 24.9 9 13 1013.1 0 47.0 43.1 85.7 227.0 254.5 885.0
11 13:10 31.9 70 23.51 25.9 6 13 1013.1 0 49.7 45.1 91.0 240.9 271.7 945.0
11 13:00 32 69 23.3 25.8 11 19 1009.7 0 49.2 44.5 89.6 237.3 267.5 930.4
11 12:50 32 70 23.64 26 11 15 1013.1 0 49.9 45.3 91.5 242.2 273.4 950.7
11 12:40 32.7 66 23.13 25.5 9 13 1013.1 0 48.8 44.0 88.2 233.6 263.0 914.8
11 12:30 32.7 67 23.48 25.8 7 15 1010.2 0 49.5 44.5 89.7 237.5 267.9 931.7
11 12:20 32.4 68 23.46 25.7 6 9 1013.1 0 49.5 44.7 90.1 238.7 269.2 936.1
11 12:10 32.4 68 23.46 25.9 9 13 1013.1 0 49.5 44.7 90.1 238.7 269.2 936.1
11 12:00 31.6 70 23.14 25.5 7 13 1010.8 0 48.9 44.5 89.4 236.8 266.7 927.3
11 11:50 31.6 72 23.8 25.9 6 7 1013.1 0 50.3 45.8 92.7 245.6 277.4 964.5
11 11:40 31.5 72 23.67 25.8 7 11 1013.1 0 50.1 45.6 92.2 244.2 275.7 958.7
11 11:30 31.2 71 22.97 25.5 9 13 1011.2 0 48.6 44.4 89.1 235.9 265.5 923.3
11 11:20 31.6 72 23.8 26.1 4 6 1013.1 0 50.3 45.8 92.7 245.6 277.4 964.5
11 11:10 31.2 72 23.3 25.7 6 6 1013.1 0 49.3 45.1 90.8 240.5 271.0 942.3
11 11:00 31.4 71 23.22 25.5 4 7 1011.4 0 49.1 44.8 90.0 238.5 268.7 934.5
11 10:50 31.1 71 22.85 25.2 4 6 1013.1 0 48.4 44.3 88.8 235.1 264.4 919.2
11 10:40 31.1 71 22.85 25.2 4 6 1013.1 0 48.4 44.3 88.8 235.1 264.4 919.2
11 10:30 31.2 66 21.35 24.3 4 7 1011.6 0 45.2 41.4 81.5 215.9 240.9 837.8
11 10:20 30.9 74 23.56 25.7 4 4 1013.1 0 49.9 45.8 92.4 244.8 276.2 960.3
11 10:10 30.6 74 23.18 25.4 6 7 1013.1 0 49.1 45.2 90.9 240.8 271.3 943.3
11 10:00 30.4 76 23.55 25.7 4 7 1011.5 0 50.0 45.9 92.9 246.0 277.6 965.2
11 09:50 29.9 77 23.23 25.4 6 7 1013.1 0 49.3 45.7 92.0 243.7 274.7 954.9
11 09:40 29.5 79 23.32 25.6 2 2 1013.1 0 49.6 46.1 93.0 246.2 277.6 965.0
11 09:30 29.2 82 23.81 25.8 2 6 1011.4 0 50.7 47.1 95.7 253.4 286.4 995.3
11 09:20 28.9 85 24.29 26.1 0 0 1013.1 0 51.7 48.4 98.6 261.1 295.7 1027.8
11 09:10 27.9 90 24.34 26.1 0 0 1013.1 0 52.0 49.1 100.2 265.4 300.6 1044.7
11 09:00 27.3 93 24.34 26.1 2 2 1011.4 0 52.1 49.4 100.9 267.2 302.8 1052.1
11 08:50 27.2 95 24.72 26.3 0 0 1013.1 13 52.9 50.3 103.1 273.2 310.0 1077.1
11 08:40 26.9 95 24.32 26 0 0 1013.1 13 52.1 49.6 101.5 268.7 304.4 1057.7
11 08:30 26.4 95 23.65 25.5 0 0 1011.2 13 50.7 48.5 98.5 260.9 294.8 1024.0
11 08:20 26.1 96 23.5 25.4 0 0 1013.1 13 50.4 48.4 98.3 260.2 293.8 1020.6
11 08:10 25.7 96 22.98 25 0 0 1013.1 13 49.4 47.6 96.1 254.4 286.6 995.6
11 08:00 25.6 97 23.09 25.1 0 0 1011.2 13 49.6 47.8 96.6 255.9 288.5 1002.2
11 07:50 25.1 97 22.45 24.6 0 0 1013.1 13 48.3 46.8 94.1 249.2 280.0 972.6
11 07:40 24.6 97 21.83 24.1 0 0 1013.1 13 47.0 45.8 91.6 242.4 271.5 943.1
11 07:30 23.9 96 20.77 23.2 2 2 1010.8 13 44.9 44.0 86.9 229.9 256.1 889.5
11 07:20 23.8 96 20.65 23.1 4 4 1013.1 13 44.6 43.9 86.5 229.0 254.9 885.2
11 07:10 23.8 96 20.65 23.1 0 0 1013.1 13 44.6 43.9 86.5 229.0 254.9 885.2
11 07:00 23.8 96 20.65 23.1 2 4 1010.5 13 44.6 43.8 86.4 228.6 254.5 883.7
11 06:50 23.8 96 20.65 23.1 2 2 1013.1 13 44.6 43.9 86.5 229.0 254.9 885.2
11 06:40 23.9 96 20.77 23.2 4 4 1013.1 13 44.9 44.1 87.0 230.3 256.5 890.9
11 06:30 23.9 96 20.77 23.2 2 4 1010.4 13 44.9 43.9 86.8 229.9 256.1 889.3
11 06:20 23.9 96 20.77 23.2 2 4 1013.1 13 44.9 44.1 87.0 230.3 256.5 890.9
11 06:10 23.9 96 20.77 23.2 0 0 1013.1 13 44.9 44.1 87.0 230.3 256.5 890.9
11 06:00 24 96 20.89 23.3 2 4 1010 13 45.1 44.1 87.3 231.1 257.6 894.7
11 05:50 24.1 96 21 23.4 4 4 1013.1 13 45.3 44.4 88.0 232.8 259.6 901.6
11 05:40 24.2 96 21.12 23.5 2 2 1013.1 13 45.6 44.6 88.4 234.1 261.2 907.2
11 04:50 24.2 96 21.12 23.5 4 4 1013.1 13 45.6 44.6 88.4 234.1 261.2 907.2
11 04:40 24.4 97 21.59 23.9 0 0 1013.1 13 46.6 45.5 90.6 239.8 268.3 931.8

Last Refresh: 11-Apr-2021 21:55:09

Bureau of Meteorology